sensor_id;sensor_type;location;lat;lon;timestamp;P1;durP1;ratioP1;P2;durP2;ratioP2
24090;SDS011;12272;52.426;17.100;2023-08-06T00:04:41;4.88;;;2.92;;
24090;SDS011;12272;52.426;17.100;2023-08-06T00:09:44;3.20;;;2.40;;
24090;SDS011;12272;52.426;17.100;2023-08-06T00:14:49;4.07;;;2.60;;
24090;SDS011;12272;52.426;17.100;2023-08-06T00:19:53;2.90;;;2.50;;
24090;SDS011;12272;52.426;17.100;2023-08-06T00:24:55;2.75;;;2.55;;
24090;SDS011;12272;52.426;17.100;2023-08-06T00:29:59;2.58;;;2.38;;
24090;SDS011;12272;52.426;17.100;2023-08-06T00:35:02;2.58;;;2.30;;
24090;SDS011;12272;52.426;17.100;2023-08-06T00:40:06;3.78;;;2.50;;
24090;SDS011;12272;52.426;17.100;2023-08-06T00:45:09;3.28;;;2.83;;
24090;SDS011;12272;52.426;17.100;2023-08-06T00:50:12;3.00;;;2.65;;
24090;SDS011;12272;52.426;17.100;2023-08-06T00:55:15;4.13;;;2.67;;
24090;SDS011;12272;52.426;17.100;2023-08-06T01:00:18;7.97;;;3.60;;
24090;SDS011;12272;52.426;17.100;2023-08-06T01:05:22;5.93;;;3.05;;
24090;SDS011;12272;52.426;17.100;2023-08-06T01:10:32;2.80;;;2.55;;
24090;SDS011;12272;52.426;17.100;2023-08-06T01:15:55;3.30;;;2.97;;
24090;SDS011;12272;52.426;17.100;2023-08-06T01:21:01;2.78;;;2.55;;
24090;SDS011;12272;52.426;17.100;2023-08-06T01:26:14;3.10;;;2.47;;
24090;SDS011;12272;52.426;17.100;2023-08-06T01:31:22;3.58;;;2.30;;
24090;SDS011;12272;52.426;17.100;2023-08-06T01:36:28;2.33;;;2.13;;
24090;SDS011;12272;52.426;17.100;2023-08-06T01:41:34;2.40;;;2.20;;
24090;SDS011;12272;52.426;17.100;2023-08-06T01:46:38;3.40;;;1.98;;
24090;SDS011;12272;52.426;17.100;2023-08-06T01:51:41;2.05;;;1.65;;
24090;SDS011;12272;52.426;17.100;2023-08-06T01:56:44;2.10;;;1.90;;
24090;SDS011;12272;52.426;17.100;2023-08-06T02:01:46;2.75;;;2.25;;
24090;SDS011;12272;52.426;17.100;2023-08-06T02:06:49;4.15;;;1.55;;
24090;SDS011;12272;52.426;17.100;2023-08-06T02:11:52;1.70;;;1.60;;
24090;SDS011;12272;52.426;17.100;2023-08-06T02:16:55;1.38;;;1.27;;
24090;SDS011;12272;52.426;17.100;2023-08-06T02:22:00;1.35;;;1.25;;
24090;SDS011;12272;52.426;17.100;2023-08-06T02:27:04;1.48;;;1.38;;
24090;SDS011;12272;52.426;17.100;2023-08-06T02:32:06;2.00;;;1.50;;
24090;SDS011;12272;52.426;17.100;2023-08-06T02:37:09;1.60;;;1.33;;
24090;SDS011;12272;52.426;17.100;2023-08-06T02:42:13;1.45;;;1.35;;
24090;SDS011;12272;52.426;17.100;2023-08-06T02:47:16;1.48;;;1.38;;
24090;SDS011;12272;52.426;17.100;2023-08-06T02:52:18;2.85;;;1.95;;
24090;SDS011;12272;52.426;17.100;2023-08-06T02:57:21;0.93;;;0.93;;
24090;SDS011;12272;52.426;17.100;2023-08-06T03:02:26;2.08;;;1.20;;
24090;SDS011;12272;52.426;17.100;2023-08-06T03:07:35;1.83;;;1.00;;
24090;SDS011;12272;52.426;17.100;2023-08-06T03:12:47;1.75;;;1.20;;
24090;SDS011;12272;52.426;17.100;2023-08-06T03:17:49;1.30;;;1.20;;
24090;SDS011;12272;52.426;17.100;2023-08-06T03:22:55;1.70;;;0.90;;
24090;SDS011;12272;52.426;17.100;2023-08-06T03:27:58;1.55;;;1.45;;
24090;SDS011;12272;52.426;17.100;2023-08-06T03:33:01;1.20;;;1.10;;
24090;SDS011;12272;52.426;17.100;2023-08-06T03:38:04;1.00;;;1.00;;
24090;SDS011;12272;52.426;17.100;2023-08-06T03:43:07;3.28;;;0.90;;
24090;SDS011;12272;52.426;17.100;2023-08-06T03:48:09;1.45;;;0.95;;
24090;SDS011;12272;52.426;17.100;2023-08-06T03:53:13;2.55;;;1.33;;
24090;SDS011;12272;52.426;17.100;2023-08-06T03:58:16;0.90;;;0.90;;
24090;SDS011;12272;52.426;17.100;2023-08-06T04:03:18;0.90;;;0.90;;
24090;SDS011;12272;52.426;17.100;2023-08-06T04:08:22;1.25;;;1.10;;
24090;SDS011;12272;52.426;17.100;2023-08-06T04:13:25;1.42;;;1.33;;
24090;SDS011;12272;52.426;17.100;2023-08-06T04:18:28;1.63;;;0.90;;
24090;SDS011;12272;52.426;17.100;2023-08-06T04:23:31;1.67;;;0.90;;
24090;SDS011;12272;52.426;17.100;2023-08-06T04:28:37;0.98;;;0.98;;
24090;SDS011;12272;52.426;17.100;2023-08-06T04:33:40;1.10;;;1.00;;
24090;SDS011;12272;52.426;17.100;2023-08-06T04:38:46;1.20;;;0.90;;
24090;SDS011;12272;52.426;17.100;2023-08-06T04:43:50;0.90;;;0.70;;
24090;SDS011;12272;52.426;17.100;2023-08-06T04:48:53;1.10;;;1.00;;
24090;SDS011;12272;52.426;17.100;2023-08-06T04:53:56;3.05;;;0.70;;
24090;SDS011;12272;52.426;17.100;2023-08-06T04:58:59;1.30;;;1.10;;
24090;SDS011;12272;52.426;17.100;2023-08-06T05:04:02;1.65;;;1.00;;
24090;SDS011;12272;52.426;17.100;2023-08-06T05:09:05;3.22;;;1.33;;
24090;SDS011;12272;52.426;17.100;2023-08-06T05:14:08;1.40;;;1.27;;
24090;SDS011;12272;52.426;17.100;2023-08-06T05:19:10;0.73;;;0.73;;
24090;SDS011;12272;52.426;17.100;2023-08-06T05:24:13;1.27;;;0.65;;
24090;SDS011;12272;52.426;17.100;2023-08-06T05:29:16;1.75;;;0.75;;
24090;SDS011;12272;52.426;17.100;2023-08-06T05:34:19;1.30;;;0.63;;
24090;SDS011;12272;52.426;17.100;2023-08-06T05:39:21;1.15;;;1.00;;
24090;SDS011;12272;52.426;17.100;2023-08-06T05:44:24;0.90;;;0.90;;
24090;SDS011;12272;52.426;17.100;2023-08-06T05:49:26;0.75;;;0.60;;
24090;SDS011;12272;52.426;17.100;2023-08-06T05:54:29;0.63;;;0.57;;
24090;SDS011;12272;52.426;17.100;2023-08-06T05:59:31;0.40;;;0.40;;
24090;SDS011;12272;52.426;17.100;2023-08-06T06:04:34;0.50;;;0.40;;
24090;SDS011;12272;52.426;17.100;2023-08-06T06:09:37;1.00;;;0.90;;
24090;SDS011;12272;52.426;17.100;2023-08-06T06:14:41;0.88;;;0.88;;
24090;SDS011;12272;52.426;17.100;2023-08-06T06:19:44;0.93;;;0.20;;
24090;SDS011;12272;52.426;17.100;2023-08-06T06:24:46;0.70;;;0.70;;
24090;SDS011;12272;52.426;17.100;2023-08-06T06:29:49;0.52;;;0.25;;
24090;SDS011;12272;52.426;17.100;2023-08-06T06:34:51;0.75;;;0.20;;
24090;SDS011;12272;52.426;17.100;2023-08-06T06:39:54;1.75;;;0.35;;
24090;SDS011;12272;52.426;17.100;2023-08-06T06:44:56;0.30;;;0.30;;
24090;SDS011;12272;52.426;17.100;2023-08-06T06:49:59;0.55;;;0.55;;
24090;SDS011;12272;52.426;17.100;2023-08-06T06:55:01;0.50;;;0.40;;
24090;SDS011;12272;52.426;17.100;2023-08-06T07:00:04;0.30;;;0.30;;
24090;SDS011;12272;52.426;17.100;2023-08-06T07:05:11;0.70;;;0.47;;
24090;SDS011;12272;52.426;17.100;2023-08-06T07:10:15;0.43;;;0.40;;
24090;SDS011;12272;52.426;17.100;2023-08-06T07:15:18;0.35;;;0.35;;
24090;SDS011;12272;52.426;17.100;2023-08-06T07:20:20;0.60;;;0.40;;
24090;SDS011;12272;52.426;17.100;2023-08-06T07:25:23;1.65;;;0.43;;
24090;SDS011;12272;52.426;17.100;2023-08-06T07:30:26;0.77;;;0.70;;
24090;SDS011;12272;52.426;17.100;2023-08-06T07:35:28;1.95;;;0.63;;
24090;SDS011;12272;52.426;17.100;2023-08-06T07:40:31;1.73;;;0.20;;
24090;SDS011;12272;52.426;17.100;2023-08-06T07:45:34;1.10;;;0.95;;
24090;SDS011;12272;52.426;17.100;2023-08-06T07:50:40;3.10;;;0.20;;
24090;SDS011;12272;52.426;17.100;2023-08-06T07:55:43;2.15;;;0.10;;
24090;SDS011;12272;52.426;17.100;2023-08-06T08:00:47;0.00;;;0.00;;
24090;SDS011;12272;52.426;17.100;2023-08-06T08:05:50;0.10;;;0.10;;
24090;SDS011;12272;52.426;17.100;2023-08-06T08:10:56;0.20;;;0.10;;
24090;SDS011;12272;52.426;17.100;2023-08-06T08:16:01;0.15;;;0.10;;
24090;SDS011;12272;52.426;17.100;2023-08-06T08:21:04;1.13;;;0.20;;
24090;SDS011;12272;52.426;17.100;2023-08-06T08:26:06;0.20;;;0.20;;
24090;SDS011;12272;52.426;17.100;2023-08-06T08:31:09;0.80;;;0.30;;
24090;SDS011;12272;52.426;17.100;2023-08-06T08:36:13;0.20;;;0.10;;
24090;SDS011;12272;52.426;17.100;2023-08-06T08:41:15;0.00;;;0.00;;
24090;SDS011;12272;52.426;17.100;2023-08-06T08:46:19;0.73;;;0.10;;
24090;SDS011;12272;52.426;17.100;2023-08-06T08:51:22;0.00;;;0.00;;
24090;SDS011;12272;52.426;17.100;2023-08-06T08:56:26;0.15;;;0.13;;
24090;SDS011;12272;52.426;17.100;2023-08-06T09:01:29;0.28;;;0.20;;
24090;SDS011;12272;52.426;17.100;2023-08-06T09:06:32;0.20;;;0.10;;
24090;SDS011;12272;52.426;17.100;2023-08-06T09:11:41;0.70;;;0.20;;
24090;SDS011;12272;52.426;17.100;2023-08-06T09:16:45;0.97;;;0.20;;
24090;SDS011;12272;52.426;17.100;2023-08-06T09:21:50;0.20;;;0.20;;
24090;SDS011;12272;52.426;17.100;2023-08-06T09:26:54;0.40;;;0.20;;
24090;SDS011;12272;52.426;17.100;2023-08-06T09:31:57;1.87;;;0.10;;
24090;SDS011;12272;52.426;17.100;2023-08-06T09:37:00;0.37;;;0.10;;
24090;SDS011;12272;52.426;17.100;2023-08-06T09:42:03;0.57;;;0.57;;
24090;SDS011;12272;52.426;17.100;2023-08-06T09:47:06;0.23;;;0.20;;
24090;SDS011;12272;52.426;17.100;2023-08-06T09:52:10;0.20;;;0.20;;
24090;SDS011;12272;52.426;17.100;2023-08-06T09:57:14;0.80;;;0.70;;
24090;SDS011;12272;52.426;17.100;2023-08-06T10:02:17;0.37;;;0.30;;
24090;SDS011;12272;52.426;17.100;2023-08-06T10:07:40;1.80;;;0.30;;
24090;SDS011;12272;52.426;17.100;2023-08-06T10:12:45;0.43;;;0.10;;
24090;SDS011;12272;52.426;17.100;2023-08-06T10:17:51;0.37;;;0.10;;
24090;SDS011;12272;52.426;17.100;2023-08-06T10:23:04;0.20;;;0.10;;
24090;SDS011;12272;52.426;17.100;2023-08-06T10:28:09;0.10;;;0.10;;
24090;SDS011;12272;52.426;17.100;2023-08-06T10:33:13;1.07;;;0.40;;
24090;SDS011;12272;52.426;17.100;2023-08-06T10:38:21;0.10;;;0.10;;
24090;SDS011;12272;52.426;17.100;2023-08-06T10:43:25;3.67;;;0.40;;
24090;SDS011;12272;52.426;17.100;2023-08-06T10:48:36;6.33;;;0.40;;
24090;SDS011;12272;52.426;17.100;2023-08-06T10:53:46;0.80;;;0.40;;
24090;SDS011;12272;52.426;17.100;2023-08-06T10:58:55;0.60;;;0.20;;
24090;SDS011;12272;52.426;17.100;2023-08-06T11:04:00;0.70;;;0.10;;
24090;SDS011;12272;52.426;17.100;2023-08-06T11:09:04;0.83;;;0.10;;
24090;SDS011;12272;52.426;17.100;2023-08-06T11:14:07;0.57;;;0.30;;
24090;SDS011;12272;52.426;17.100;2023-08-06T11:19:17;0.10;;;0.10;;
24090;SDS011;12272;52.426;17.100;2023-08-06T11:24:20;3.90;;;0.40;;
24090;SDS011;12272;52.426;17.100;2023-08-06T11:29:22;3.27;;;0.50;;
24090;SDS011;12272;52.426;17.100;2023-08-06T11:34:25;1.30;;;0.30;;
24090;SDS011;12272;52.426;17.100;2023-08-06T11:39:27;0.23;;;0.20;;
24090;SDS011;12272;52.426;17.100;2023-08-06T11:44:35;2.78;;;0.30;;
24090;SDS011;12272;52.426;17.100;2023-08-06T11:49:48;0.20;;;0.10;;
24090;SDS011;12272;52.426;17.100;2023-08-06T11:55:03;0.77;;;0.32;;
24090;SDS011;12272;52.426;17.100;2023-08-06T12:00:12;7.15;;;0.52;;
24090;SDS011;12272;52.426;17.100;2023-08-06T12:05:17;0.15;;;0.10;;
24090;SDS011;12272;52.426;17.100;2023-08-06T12:10:23;1.00;;;0.28;;
24090;SDS011;12272;52.426;17.100;2023-08-06T12:15:27;2.05;;;0.10;;
24090;SDS011;12272;52.426;17.100;2023-08-06T12:20:33;0.60;;;0.10;;
24090;SDS011;12272;52.426;17.100;2023-08-06T12:25:35;0.23;;;0.20;;
24090;SDS011;12272;52.426;17.100;2023-08-06T12:30:38;2.43;;;0.10;;
24090;SDS011;12272;52.426;17.100;2023-08-06T12:35:43;0.57;;;0.10;;
24090;SDS011;12272;52.426;17.100;2023-08-06T12:40:46;0.70;;;0.37;;
24090;SDS011;12272;52.426;17.100;2023-08-06T12:45:49;0.37;;;0.10;;
24090;SDS011;12272;52.426;17.100;2023-08-06T12:50:51;0.57;;;0.30;;
24090;SDS011;12272;52.426;17.100;2023-08-06T12:55:54;0.30;;;0.20;;
24090;SDS011;12272;52.426;17.100;2023-08-06T13:00:56;0.93;;;0.20;;
24090;SDS011;12272;52.426;17.100;2023-08-06T13:05:59;0.20;;;0.10;;
24090;SDS011;12272;52.426;17.100;2023-08-06T13:11:01;0.10;;;0.10;;
24090;SDS011;12272;52.426;17.100;2023-08-06T13:16:04;0.53;;;0.30;;
24090;SDS011;12272;52.426;17.100;2023-08-06T13:21:06;0.20;;;0.20;;
24090;SDS011;12272;52.426;17.100;2023-08-06T13:26:09;0.10;;;0.10;;
24090;SDS011;12272;52.426;17.100;2023-08-06T13:31:11;0.10;;;0.10;;
24090;SDS011;12272;52.426;17.100;2023-08-06T13:36:14;0.30;;;0.10;;
24090;SDS011;12272;52.426;17.100;2023-08-06T13:41:17;0.47;;;0.20;;
24090;SDS011;12272;52.426;17.100;2023-08-06T13:46:20;0.20;;;0.10;;
24090;SDS011;12272;52.426;17.100;2023-08-06T13:51:24;0.10;;;0.10;;
24090;SDS011;12272;52.426;17.100;2023-08-06T13:56:26;0.17;;;0.17;;
24090;SDS011;12272;52.426;17.100;2023-08-06T14:01:30;0.00;;;0.00;;
24090;SDS011;12272;52.426;17.100;2023-08-06T14:06:51;0.10;;;0.10;;
24090;SDS011;12272;52.426;17.100;2023-08-06T14:11:54;0.10;;;0.10;;
24090;SDS011;12272;52.426;17.100;2023-08-06T14:16:57;0.10;;;0.00;;
24090;SDS011;12272;52.426;17.100;2023-08-06T14:22:00;0.30;;;0.10;;
24090;SDS011;12272;52.426;17.100;2023-08-06T14:27:03;1.45;;;0.10;;
24090;SDS011;12272;52.426;17.100;2023-08-06T14:32:07;0.55;;;0.10;;
24090;SDS011;12272;52.426;17.100;2023-08-06T14:37:10;0.13;;;0.10;;
24090;SDS011;12272;52.426;17.100;2023-08-06T14:42:13;3.92;;;0.63;;
24090;SDS011;12272;52.426;17.100;2023-08-06T14:47:15;0.10;;;0.10;;
24090;SDS011;12272;52.426;17.100;2023-08-06T14:52:18;0.38;;;0.08;;
24090;SDS011;12272;52.426;17.100;2023-08-06T14:57:21;0.20;;;0.10;;
24090;SDS011;12272;52.426;17.100;2023-08-06T15:02:29;0.80;;;0.10;;
24090;SDS011;12272;52.426;17.100;2023-08-06T15:07:32;0.93;;;0.20;;
24090;SDS011;12272;52.426;17.100;2023-08-06T15:12:37;0.30;;;0.10;;
24090;SDS011;12272;52.426;17.100;2023-08-06T15:17:41;1.70;;;0.13;;
24090;SDS011;12272;52.426;17.100;2023-08-06T15:22:43;0.53;;;0.20;;
24090;SDS011;12272;52.426;17.100;2023-08-06T15:27:46;0.40;;;0.33;;
24090;SDS011;12272;52.426;17.100;2023-08-06T15:32:48;0.43;;;0.40;;
24090;SDS011;12272;52.426;17.100;2023-08-06T15:37:51;0.47;;;0.17;;
24090;SDS011;12272;52.426;17.100;2023-08-06T15:42:54;0.17;;;0.10;;
24090;SDS011;12272;52.426;17.100;2023-08-06T15:47:56;1.00;;;0.63;;
24090;SDS011;12272;52.426;17.100;2023-08-06T15:52:59;0.30;;;0.20;;
24090;SDS011;12272;52.426;17.100;2023-08-06T15:58:02;2.30;;;0.87;;
24090;SDS011;12272;52.426;17.100;2023-08-06T16:03:04;0.73;;;0.52;;
24090;SDS011;12272;52.426;17.100;2023-08-06T16:08:07;1.65;;;0.85;;
24090;SDS011;12272;52.426;17.100;2023-08-06T16:13:09;1.45;;;0.65;;
24090;SDS011;12272;52.426;17.100;2023-08-06T16:18:12;0.90;;;0.50;;
24090;SDS011;12272;52.426;17.100;2023-08-06T16:23:14;1.17;;;0.20;;
24090;SDS011;12272;52.426;17.100;2023-08-06T16:28:17;0.50;;;0.40;;
24090;SDS011;12272;52.426;17.100;2023-08-06T16:33:19;0.97;;;0.80;;
24090;SDS011;12272;52.426;17.100;2023-08-06T16:38:22;1.13;;;0.93;;
24090;SDS011;12272;52.426;17.100;2023-08-06T16:43:24;1.30;;;0.47;;
24090;SDS011;12272;52.426;17.100;2023-08-06T16:48:27;0.50;;;0.40;;
24090;SDS011;12272;52.426;17.100;2023-08-06T16:53:29;0.57;;;0.30;;
24090;SDS011;12272;52.426;17.100;2023-08-06T16:58:32;2.97;;;0.80;;
24090;SDS011;12272;52.426;17.100;2023-08-06T17:03:34;0.60;;;0.40;;
24090;SDS011;12272;52.426;17.100;2023-08-06T17:08:37;0.80;;;0.33;;
24090;SDS011;12272;52.426;17.100;2023-08-06T17:13:40;0.60;;;0.57;;
24090;SDS011;12272;52.426;17.100;2023-08-06T17:18:43;3.33;;;1.17;;
24090;SDS011;12272;52.426;17.100;2023-08-06T17:23:45;0.50;;;0.40;;
24090;SDS011;12272;52.426;17.100;2023-08-06T17:28:48;1.80;;;0.50;;
24090;SDS011;12272;52.426;17.100;2023-08-06T17:33:50;0.60;;;0.50;;
24090;SDS011;12272;52.426;17.100;2023-08-06T17:38:53;1.17;;;0.83;;
24090;SDS011;12272;52.426;17.100;2023-08-06T17:43:55;3.37;;;1.83;;
24090;SDS011;12272;52.426;17.100;2023-08-06T17:48:58;1.47;;;0.63;;
24090;SDS011;12272;52.426;17.100;2023-08-06T17:54:01;0.77;;;0.57;;
24090;SDS011;12272;52.426;17.100;2023-08-06T17:59:04;2.90;;;1.00;;
24090;SDS011;12272;52.426;17.100;2023-08-06T18:04:06;0.77;;;0.50;;
24090;SDS011;12272;52.426;17.100;2023-08-06T18:09:09;1.63;;;0.50;;
24090;SDS011;12272;52.426;17.100;2023-08-06T18:14:12;1.47;;;0.90;;
24090;SDS011;12272;52.426;17.100;2023-08-06T18:19:14;1.43;;;0.90;;
24090;SDS011;12272;52.426;17.100;2023-08-06T18:24:17;5.33;;;1.20;;
24090;SDS011;12272;52.426;17.100;2023-08-06T18:29:20;2.00;;;0.70;;
24090;SDS011;12272;52.426;17.100;2023-08-06T18:34:22;1.70;;;0.60;;
24090;SDS011;12272;52.426;17.100;2023-08-06T18:39:25;0.63;;;0.53;;
24090;SDS011;12272;52.426;17.100;2023-08-06T18:44:27;1.57;;;0.90;;
24090;SDS011;12272;52.426;17.100;2023-08-06T18:49:31;0.80;;;0.50;;
24090;SDS011;12272;52.426;17.100;2023-08-06T18:54:33;1.00;;;0.70;;
24090;SDS011;12272;52.426;17.100;2023-08-06T18:59:36;0.87;;;0.70;;
24090;SDS011;12272;52.426;17.100;2023-08-06T19:04:39;1.27;;;0.57;;
24090;SDS011;12272;52.426;17.100;2023-08-06T19:09:41;1.20;;;0.70;;
24090;SDS011;12272;52.426;17.100;2023-08-06T19:14:47;1.27;;;0.60;;
24090;SDS011;12272;52.426;17.100;2023-08-06T19:19:50;1.47;;;0.70;;
24090;SDS011;12272;52.426;17.100;2023-08-06T19:24:52;2.10;;;1.00;;
24090;SDS011;12272;52.426;17.100;2023-08-06T19:29:55;0.87;;;0.87;;
24090;SDS011;12272;52.426;17.100;2023-08-06T19:34:57;1.33;;;0.80;;
24090;SDS011;12272;52.426;17.100;2023-08-06T19:40:00;1.53;;;0.87;;
24090;SDS011;12272;52.426;17.100;2023-08-06T19:45:02;1.55;;;0.85;;
24090;SDS011;12272;52.426;17.100;2023-08-06T19:50:06;1.63;;;1.10;;
24090;SDS011;12272;52.426;17.100;2023-08-06T19:55:09;1.13;;;0.73;;
24090;SDS011;12272;52.426;17.100;2023-08-06T20:00:12;1.95;;;0.75;;
24090;SDS011;12272;52.426;17.100;2023-08-06T20:05:15;0.70;;;0.52;;
24090;SDS011;12272;52.426;17.100;2023-08-06T20:10:18;1.58;;;0.50;;
24090;SDS011;12272;52.426;17.100;2023-08-06T20:15:20;0.85;;;0.70;;
24090;SDS011;12272;52.426;17.100;2023-08-06T20:20:23;1.87;;;0.90;;
24090;SDS011;12272;52.426;17.100;2023-08-06T20:25:25;1.45;;;0.75;;
24090;SDS011;12272;52.426;17.100;2023-08-06T20:30:28;0.80;;;0.60;;
24090;SDS011;12272;52.426;17.100;2023-08-06T20:35:31;1.08;;;0.47;;
24090;SDS011;12272;52.426;17.100;2023-08-06T20:40:33;1.55;;;0.85;;
24090;SDS011;12272;52.426;17.100;2023-08-06T20:45:37;2.70;;;0.90;;
24090;SDS011;12272;52.426;17.100;2023-08-06T20:50:40;1.02;;;0.80;;
24090;SDS011;12272;52.426;17.100;2023-08-06T20:55:43;1.33;;;0.87;;
24090;SDS011;12272;52.426;17.100;2023-08-06T21:00:45;2.17;;;0.73;;
24090;SDS011;12272;52.426;17.100;2023-08-06T21:06:01;2.77;;;1.07;;
24090;SDS011;12272;52.426;17.100;2023-08-06T21:11:07;2.90;;;1.10;;
24090;SDS011;12272;52.426;17.100;2023-08-06T21:16:15;1.47;;;0.70;;
24090;SDS011;12272;52.426;17.100;2023-08-06T21:21:17;2.67;;;0.90;;
24090;SDS011;12272;52.426;17.100;2023-08-06T21:26:20;1.60;;;1.23;;
24090;SDS011;12272;52.426;17.100;2023-08-06T21:31:23;1.33;;;0.80;;
24090;SDS011;12272;52.426;17.100;2023-08-06T21:36:26;1.67;;;0.70;;
24090;SDS011;12272;52.426;17.100;2023-08-06T21:41:30;2.90;;;0.90;;
24090;SDS011;12272;52.426;17.100;2023-08-06T21:46:33;3.90;;;1.40;;
24090;SDS011;12272;52.426;17.100;2023-08-06T21:51:38;1.70;;;1.00;;
24090;SDS011;12272;52.426;17.100;2023-08-06T21:56:41;1.23;;;0.90;;
24090;SDS011;12272;52.426;17.100;2023-08-06T22:01:46;2.23;;;0.80;;
24090;SDS011;12272;52.426;17.100;2023-08-06T22:06:49;0.93;;;0.80;;
24090;SDS011;12272;52.426;17.100;2023-08-06T22:11:51;1.53;;;0.90;;
24090;SDS011;12272;52.426;17.100;2023-08-06T22:16:55;0.93;;;0.83;;
24090;SDS011;12272;52.426;17.100;2023-08-06T22:21:57;1.20;;;0.70;;
24090;SDS011;12272;52.426;17.100;2023-08-06T22:27:00;1.17;;;1.05;;
24090;SDS011;12272;52.426;17.100;2023-08-06T22:32:02;2.83;;;1.30;;
24090;SDS011;12272;52.426;17.100;2023-08-06T22:37:05;1.57;;;1.10;;
24090;SDS011;12272;52.426;17.100;2023-08-06T22:42:07;8.23;;;1.05;;
24090;SDS011;12272;52.426;17.100;2023-08-06T22:47:10;9.50;;;1.70;;
24090;SDS011;12272;52.426;17.100;2023-08-06T22:52:13;1.27;;;0.80;;
24090;SDS011;12272;52.426;17.100;2023-08-06T22:57:16;1.30;;;1.00;;
24090;SDS011;12272;52.426;17.100;2023-08-06T23:02:18;1.45;;;0.93;;
24090;SDS011;12272;52.426;17.100;2023-08-06T23:07:21;1.05;;;0.90;;
24090;SDS011;12272;52.426;17.100;2023-08-06T23:12:23;1.93;;;1.03;;
24090;SDS011;12272;52.426;17.100;2023-08-06T23:17:26;1.73;;;0.82;;
24090;SDS011;12272;52.426;17.100;2023-08-06T23:22:28;1.25;;;0.93;;
24090;SDS011;12272;52.426;17.100;2023-08-06T23:27:31;2.78;;;0.85;;
24090;SDS011;12272;52.426;17.100;2023-08-06T23:32:33;1.13;;;0.90;;
24090;SDS011;12272;52.426;17.100;2023-08-06T23:37:36;3.77;;;1.00;;
24090;SDS011;12272;52.426;17.100;2023-08-06T23:42:38;0.93;;;0.60;;
24090;SDS011;12272;52.426;17.100;2023-08-06T23:47:41;0.93;;;0.70;;
24090;SDS011;12272;52.426;17.100;2023-08-06T23:52:45;1.00;;;0.80;;
24090;SDS011;12272;52.426;17.100;2023-08-06T23:57:47;0.95;;;0.80;;
